Time,TemperatureF,DewpointF,PressureIn,WindDirection,WindDirectionDegrees,WindSpeedMPH,WindSpeedGustMPH,Humidity,HourlyPrecipIn,Conditions,Clouds,dailyrainin,SolarRadiationWatts/m^2,SoftwareType,DateUTC
2013-01-22 00:01:00,9.7,3.9,30.35,ENE,75,2.0,2.0,77,0.00,,,0.00,0,Wunderground v.1.15,2013-01-22 06:01:00,
2013-01-22 00:06:00,9.6,3.6,30.35,East,80,2.0,4.0,76,0.00,,,0.00,0,Wunderground v.1.15,2013-01-22 06:06:00,
2013-01-22 00:11:00,9.7,3.7,30.35,East,81,2.0,3.0,76,0.00,,,0.00,0,Wunderground v.1.15,2013-01-22 06:11:00,
2013-01-22 00:16:00,9.6,3.6,30.35,East,81,1.0,3.0,76,0.00,,,0.00,0,Wunderground v.1.15,2013-01-22 06:16:00,
2013-01-22 00:21:00,9.7,3.9,30.35,East,84,3.0,3.0,77,0.00,,,0.00,0,Wunderground v.1.15,2013-01-22 06:21:00,
2013-01-22 00:27:00,9.7,3.7,30.35,East,85,3.0,5.0,76,0.00,,,0.00,0,Wunderground v.1.15,2013-01-22 06:27:00,
2013-01-22 00:32:00,9.7,3.7,30.35,East,86,1.0,3.0,76,0.00,,,0.00,0,Wunderground v.1.15,2013-01-22 06:32:00,
2013-01-22 00:38:00,9.7,3.9,30.34,East,86,3.0,3.0,77,0.00,,,0.00,0,Wunderground v.1.15,2013-01-22 06:38:00,
2013-01-22 00:43:00,9.7,3.9,30.34,East,86,5.0,5.0,77,0.00,,,0.00,0,Wunderground v.1.15,2013-01-22 06:43:00,
2013-01-22 00:49:00,9.5,3.7,30.34,East,86,3.0,5.0,77,0.00,,,0.00,0,Wunderground v.1.15,2013-01-22 06:49:00,
2013-01-22 00:54:00,9.6,4.1,30.34,East,86,5.0,5.0,78,0.00,,,0.00,0,Wunderground v.1.15,2013-01-22 06:54:00,
2013-01-22 00:59:00,9.6,4.1,30.33,East,86,3.0,5.0,78,0.00,,,0.00,0,Wunderground v.1.15,2013-01-22 06:59:00,
2013-01-22 01:04:00,9.7,4.2,30.33,East,84,3.0,5.0,78,0.00,,,0.00,0,Wunderground v.1.15,2013-01-22 07:04:00,
2013-01-22 01:09:00,9.7,4.2,30.33,ENE,69,4.0,6.0,78,0.00,,,0.00,0,Wunderground v.1.15,2013-01-22 07:09:00,
2013-01-22 01:14:00,9.7,4.5,30.33,ENE,75,4.0,4.0,79,0.00,,,0.00,0,Wunderground v.1.15,2013-01-22 07:14:00,
2013-01-22 01:19:00,9.7,4.5,30.33,NE,52,4.0,5.0,79,0.00,,,0.00,0,Wunderground v.1.15,2013-01-22 07:19:00,
2013-01-22 01:25:00,9.6,4.4,30.33,NE,55,4.0,4.0,79,0.00,,,0.00,0,Wunderground v.1.15,2013-01-22 07:25:00,
2013-01-22 01:30:00,9.6,4.4,30.33,ENE,59,2.0,4.0,79,0.00,,,0.00,0,Wunderground v.1.15,2013-01-22 07:30:00,
2013-01-22 01:35:00,9.6,4.4,30.32,ENE,61,3.0,5.0,79,0.00,,,0.00,0,Wunderground v.1.15,2013-01-22 07:35:00,
2013-01-22 01:41:00,9.6,4.4,30.32,ENE,77,3.0,5.0,79,0.00,,,0.00,0,Wunderground v.1.15,2013-01-22 07:41:00,
2013-01-22 01:46:00,9.6,4.4,30.32,ENE,71,2.0,7.0,79,0.00,,,0.00,0,Wunderground v.1.15,2013-01-22 07:46:00,
2013-01-22 01:51:00,9.6,4.4,30.32,ENE,76,3.0,4.0,79,0.00,,,0.00,0,Wunderground v.1.15,2013-01-22 07:51:00,
2013-01-22 01:56:00,9.7,4.5,30.32,ENE,66,4.0,5.0,79,0.00,,,0.00,0,Wunderground v.1.15,2013-01-22 07:56:00,
2013-01-22 02:01:00,9.7,4.5,30.31,ENE,75,4.0,5.0,79,0.00,,,0.00,0,Wunderground v.1.15,2013-01-22 08:01:00,
2013-01-22 02:06:00,9.8,4.6,30.32,ENE,62,3.0,5.0,79,0.00,,,0.00,0,Wunderground v.1.15,2013-01-22 08:06:00,
2013-01-22 02:11:00,9.8,4.9,30.32,East,89,5.0,6.0,80,0.00,,,0.00,0,Wunderground v.1.15,2013-01-22 08:11:00,
2013-01-22 02:16:00,9.8,4.9,30.32,East,82,6.0,7.0,80,0.00,,,0.00,0,Wunderground v.1.15,2013-01-22 08:16:00,
2013-01-22 02:21:00,9.8,4.9,30.32,ESE,111,5.0,5.0,80,0.00,,,0.00,0,Wunderground v.1.15,2013-01-22 08:21:00,
2013-01-22 02:26:00,9.8,4.9,30.32,East,88,2.0,6.0,80,0.00,,,0.00,0,Wunderground v.1.15,2013-01-22 08:26:00,
2013-01-22 02:31:00,9.8,4.9,30.32,ESE,105,4.0,7.0,80,0.00,,,0.00,0,Wunderground v.1.15,2013-01-22 08:31:00,
2013-01-22 02:36:00,9.6,4.7,30.32,ESE,105,5.0,7.0,80,0.00,,,0.00,0,Wunderground v.1.15,2013-01-22 08:36:00,
2013-01-22 02:41:00,9.5,4.6,30.32,ESE,111,4.0,7.0,80,0.00,,,0.00,0,Wunderground v.1.15,2013-01-22 08:41:00,
2013-01-22 02:46:00,9.2,4.3,30.32,East,98,5.0,7.0,80,0.00,,,0.00,0,Wunderground v.1.15,2013-01-22 08:46:00,
2013-01-22 02:51:00,9.2,4.6,30.32,East,91,3.0,6.0,81,0.00,,,0.00,0,Wunderground v.1.15,2013-01-22 08:51:00,
2013-01-22 02:56:00,9.2,4.6,30.32,East,92,5.0,6.0,81,0.00,,,0.00,0,Wunderground v.1.15,2013-01-22 08:56:00,
2013-01-22 03:01:00,9.3,4.6,30.32,East,92,5.0,5.0,81,0.00,,,0.00,0,Wunderground v.1.15,2013-01-22 09:01:00,
2013-01-22 03:06:00,9.5,4.8,30.32,East,98,6.0,7.0,81,0.00,,,0.00,0,Wunderground v.1.15,2013-01-22 09:06:00,
2013-01-22 03:11:00,9.6,4.9,30.31,ESE,103,7.0,8.0,81,0.00,,,0.00,0,Wunderground v.1.15,2013-01-22 09:11:00,
2013-01-22 03:16:00,9.7,5.3,30.31,East,93,9.0,9.0,82,0.00,,,0.00,0,Wunderground v.1.15,2013-01-22 09:16:00,
2013-01-22 03:21:00,9.7,5.0,30.31,East,88,5.0,8.0,81,0.00,,,0.00,0,Wunderground v.1.15,2013-01-22 09:21:00,
2013-01-22 03:26:00,9.8,5.4,30.31,East,89,7.0,9.0,82,0.00,,,0.00,0,Wunderground v.1.15,2013-01-22 09:26:00,
2013-01-22 03:31:00,9.8,5.4,30.31,ESE,108,7.0,8.0,82,0.00,,,0.00,0,Wunderground v.1.15,2013-01-22 09:31:00,
2013-01-22 03:36:00,9.8,5.4,30.30,ESE,115,5.0,9.0,82,0.00,,,0.00,0,Wunderground v.1.15,2013-01-22 09:36:00,
2013-01-22 03:41:00,9.8,5.4,30.31,East,101,5.0,8.0,82,0.00,,,0.00,0,Wunderground v.1.15,2013-01-22 09:41:00,
2013-01-22 03:46:00,9.8,5.4,30.30,ESE,120,1.0,8.0,82,0.00,,,0.00,0,Wunderground v.1.15,2013-01-22 09:46:00,
2013-01-22 03:51:00,9.8,5.4,30.30,East,101,6.0,8.0,82,0.00,,,0.00,0,Wunderground v.1.15,2013-01-22 09:51:00,
2013-01-22 03:56:00,9.9,5.5,30.30,ESE,108,4.0,8.0,82,0.00,,,0.00,0,Wunderground v.1.15,2013-01-22 09:56:00,
2013-01-22 04:01:00,10.0,5.3,30.30,ESE,123,4.0,6.0,81,0.00,,,0.00,0,Wunderground v.1.15,2013-01-22 10:01:00,
2013-01-22 04:06:00,10.0,5.3,30.30,ESE,115,4.0,8.0,81,0.00,,,0.00,0,Wunderground v.1.15,2013-01-22 10:06:00,
2013-01-22 04:11:00,10.0,5.6,30.29,ESE,102,5.0,7.0,82,0.00,,,0.00,0,Wunderground v.1.15,2013-01-22 10:11:00,
2013-01-22 04:16:00,10.0,5.6,30.29,ESE,120,5.0,8.0,82,0.00,,,0.00,0,Wunderground v.1.15,2013-01-22 10:16:00,
2013-01-22 04:21:00,10.1,5.7,30.29,ESE,112,4.0,7.0,82,0.00,,,0.00,0,Wunderground v.1.15,2013-01-22 10:21:00,
2013-01-22 04:26:00,10.2,5.8,30.29,East,86,8.0,8.0,82,0.00,,,0.00,0,Wunderground v.1.15,2013-01-22 10:26:00,
2013-01-22 04:31:00,10.2,5.8,30.29,East,92,6.0,9.0,82,0.00,,,0.00,0,Wunderground v.1.15,2013-01-22 10:31:00,
2013-01-22 04:36:00,10.3,5.9,30.29,ESE,103,7.0,9.0,82,0.00,,,0.00,0,Wunderground v.1.15,2013-01-22 10:36:00,
2013-01-22 04:41:00,10.2,5.8,30.29,ESE,102,5.0,7.0,82,0.00,,,0.00,0,Wunderground v.1.15,2013-01-22 10:41:00,
2013-01-22 04:46:00,10.3,5.9,30.29,East,94,7.0,8.0,82,0.00,,,0.00,0,Wunderground v.1.15,2013-01-22 10:46:00,
2013-01-22 04:51:00,10.3,5.9,30.29,ESE,115,4.0,7.0,82,0.00,,,0.00,0,Wunderground v.1.15,2013-01-22 10:51:00,
2013-01-22 04:57:00,10.3,5.9,30.29,ESE,111,5.0,7.0,82,0.00,,,0.00,0,Wunderground v.1.15,2013-01-22 10:57:00,
2013-01-22 05:02:00,10.4,6.0,30.30,East,92,7.0,8.0,82,0.00,,,0.00,0,Wunderground v.1.15,2013-01-22 11:02:00,
2013-01-22 05:07:00,10.4,6.0,30.30,ESE,107,5.0,8.0,82,0.00,,,0.00,0,Wunderground v.1.15,2013-01-22 11:07:00,
2013-01-22 05:12:00,10.4,6.0,30.30,ESE,103,3.0,7.0,82,0.00,,,0.00,0,Wunderground v.1.15,2013-01-22 11:12:00,
2013-01-22 05:17:00,10.5,6.1,30.30,ESE,107,4.0,7.0,82,0.00,,,0.00,0,Wunderground v.1.15,2013-01-22 11:17:00,
2013-01-22 05:22:00,10.5,6.1,30.29,ESE,105,4.0,7.0,82,0.00,,,0.00,0,Wunderground v.1.15,2013-01-22 11:22:00,
2013-01-22 05:27:00,10.6,6.2,30.29,SE,132,6.0,7.0,82,0.00,,,0.00,0,Wunderground v.1.15,2013-01-22 11:27:00,
2013-01-22 05:32:00,10.5,6.1,30.29,SE,125,7.0,7.0,82,0.00,,,0.00,0,Wunderground v.1.15,2013-01-22 11:32:00,
2013-01-22 05:37:00,10.5,5.8,30.29,ESE,106,5.0,10.0,81,0.00,,,0.00,0,Wunderground v.1.15,2013-01-22 11:37:00,
2013-01-22 05:42:00,10.7,6.0,30.30,ESE,118,5.0,9.0,81,0.00,,,0.00,0,Wunderground v.1.15,2013-01-22 11:42:00,
2013-01-22 05:47:00,10.7,6.0,30.30,East,92,5.0,9.0,81,0.00,,,0.00,0,Wunderground v.1.15,2013-01-22 11:47:00,
2013-01-22 05:52:00,10.8,6.1,30.30,ESE,117,3.0,6.0,81,0.00,,,0.00,0,Wunderground v.1.15,2013-01-22 11:52:00,
2013-01-22 05:57:00,10.8,6.1,30.30,ESE,113,4.0,8.0,81,0.00,,,0.00,0,Wunderground v.1.15,2013-01-22 11:57:00,
2013-01-22 06:02:00,10.8,6.1,30.30,East,99,3.0,7.0,81,0.00,,,0.00,0,Wunderground v.1.15,2013-01-22 12:02:00,
2013-01-22 06:08:00,10.8,6.1,30.30,SE,133,4.0,8.0,81,0.00,,,0.00,0,Wunderground v.1.15,2013-01-22 12:08:00,
2013-01-22 06:13:00,10.9,6.2,30.30,East,101,7.0,8.0,81,0.00,,,0.00,0,Wunderground v.1.15,2013-01-22 12:13:00,
2013-01-22 06:18:00,10.8,6.1,30.31,East,95,6.0,9.0,81,0.00,,,0.00,0,Wunderground v.1.15,2013-01-22 12:18:00,
2013-01-22 06:22:00,10.9,6.2,30.31,East,86,8.0,9.0,81,0.00,,,0.00,0,Wunderground v.1.15,2013-01-22 12:22:00,
2013-01-22 06:27:00,10.9,6.2,30.31,ESE,114,5.0,10.0,81,0.00,,,0.00,0,Wunderground v.1.15,2013-01-22 12:27:00,
2013-01-22 06:32:00,10.9,6.2,30.31,East,86,8.0,9.0,81,0.00,,,0.00,0,Wunderground v.1.15,2013-01-22 12:32:00,
2013-01-22 06:37:00,10.9,6.2,30.30,ESE,105,8.0,9.0,81,0.00,,,0.00,0,Wunderground v.1.15,2013-01-22 12:37:00,
2013-01-22 06:43:00,10.8,6.1,30.30,ESE,105,7.0,9.0,81,0.00,,,0.00,0,Wunderground v.1.15,2013-01-22 12:43:00,
2013-01-22 06:48:00,10.8,6.1,30.31,ESE,115,5.0,9.0,81,0.00,,,0.00,0,Wunderground v.1.15,2013-01-22 12:48:00,
2013-01-22 06:53:00,10.9,6.5,30.31,East,91,9.0,9.0,82,0.00,,,0.00,0,Wunderground v.1.15,2013-01-22 12:53:00,
2013-01-22 06:58:00,10.8,6.4,30.31,East,94,7.0,9.0,82,0.00,,,0.00,0,Wunderground v.1.15,2013-01-22 12:58:00,
2013-01-22 07:03:00,10.7,6.3,30.32,East,98,6.0,7.0,82,0.00,,,0.00,0,Wunderground v.1.15,2013-01-22 13:03:00,
2013-01-22 07:08:00,10.8,6.4,30.31,SE,128,4.0,9.0,82,0.00,,,0.00,0,Wunderground v.1.15,2013-01-22 13:08:00,
2013-01-22 07:13:00,10.8,6.4,30.31,SE,134,5.0,7.0,82,0.00,,,0.00,0,Wunderground v.1.15,2013-01-22 13:13:00,
2013-01-22 07:18:00,10.8,6.4,30.31,ESE,105,4.0,7.0,82,0.00,,,0.00,0,Wunderground v.1.15,2013-01-22 13:18:00,
2013-01-22 07:23:00,10.8,6.1,30.31,ESE,103,7.0,9.0,81,0.00,,,0.00,0,Wunderground v.1.15,2013-01-22 13:23:00,
2013-01-22 07:28:00,10.8,6.4,30.31,ESE,103,7.0,9.0,82,0.00,,,0.00,0,Wunderground v.1.15,2013-01-22 13:28:00,
2013-01-22 07:33:00,10.9,6.5,30.31,East,96,5.0,7.0,82,0.00,,,0.00,0,Wunderground v.1.15,2013-01-22 13:33:00,
2013-01-22 07:38:00,10.9,6.2,30.32,East,96,7.0,9.0,81,0.00,,,0.00,0,Wunderground v.1.15,2013-01-22 13:38:00,
2013-01-22 07:43:00,10.9,6.2,30.31,East,101,7.0,9.0,81,0.00,,,0.00,0,Wunderground v.1.15,2013-01-22 13:43:00,
2013-01-22 07:48:00,11.0,6.3,30.31,SE,129,5.0,9.0,81,0.00,,,0.00,0,Wunderground v.1.15,2013-01-22 13:48:00,
2013-01-22 07:53:00,11.0,6.3,30.31,SE,127,4.0,6.0,81,0.00,,,0.00,0,Wunderground v.1.15,2013-01-22 13:53:00,
2013-01-22 07:58:00,11.0,6.3,30.31,East,100,7.0,8.0,81,0.00,,,0.00,0,Wunderground v.1.15,2013-01-22 13:58:00,
2013-01-22 08:03:00,11.1,6.4,30.31,East,98,8.0,10.0,81,0.00,,,0.00,0,Wunderground v.1.15,2013-01-22 14:03:00,
2013-01-22 08:08:00,11.1,6.4,30.31,ESE,112,4.0,10.0,81,0.00,,,0.00,7,Wunderground v.1.15,2013-01-22 14:08:00,
2013-01-22 08:13:00,11.1,6.4,30.31,ESE,110,5.0,9.0,81,0.00,,,0.00,9,Wunderground v.1.15,2013-01-22 14:13:00,
2013-01-22 08:18:00,11.2,6.5,30.31,ESE,114,9.0,9.0,81,0.00,,,0.00,14,Wunderground v.1.15,2013-01-22 14:18:00,
2013-01-22 08:23:00,11.2,6.5,30.30,ESE,118,7.0,8.0,81,0.00,,,0.00,19,Wunderground v.1.15,2013-01-22 14:23:00,
2013-01-22 08:28:00,11.2,6.5,30.31,SE,132,8.0,10.0,81,0.00,,,0.00,23,Wunderground v.1.15,2013-01-22 14:28:00,
2013-01-22 08:33:00,11.3,6.6,30.31,SE,128,5.0,8.0,81,0.00,,,0.00,26,Wunderground v.1.15,2013-01-22 14:33:00,
2013-01-22 08:38:00,11.5,6.8,30.31,SE,136,2.0,9.0,81,0.00,,,0.00,28,Wunderground v.1.15,2013-01-22 14:38:00,
2013-01-22 08:43:00,11.6,6.9,30.31,ESE,120,3.0,9.0,81,0.00,,,0.00,32,Wunderground v.1.15,2013-01-22 14:43:00,
2013-01-22 08:48:00,11.7,6.7,30.32,SE,130,5.0,9.0,80,0.00,,,0.00,30,Wunderground v.1.15,2013-01-22 14:48:00,
2013-01-22 08:53:00,11.8,6.8,30.32,SSE,150,8.0,8.0,80,0.00,,,0.00,39,Wunderground v.1.15,2013-01-22 14:53:00,
2013-01-22 08:58:00,11.9,6.9,30.32,SE,136,6.0,9.0,80,0.00,,,0.00,51,Wunderground v.1.15,2013-01-22 14:58:00,
2013-01-22 09:03:00,12.1,7.1,30.32,SE,140,5.0,10.0,80,0.00,,,0.00,67,Wunderground v.1.15,2013-01-22 15:03:00,
2013-01-22 09:08:00,12.4,7.4,30.32,SE,138,6.0,10.0,80,0.00,,,0.00,65,Wunderground v.1.15,2013-01-22 15:08:00,
2013-01-22 09:13:00,12.6,7.3,30.31,SSE,151,10.0,13.0,79,0.00,,,0.00,97,Wunderground v.1.15,2013-01-22 15:13:00,
2013-01-22 09:18:00,12.8,7.5,30.32,SSE,165,12.0,13.0,79,0.00,,,0.00,91,Wunderground v.1.15,2013-01-22 15:18:00,
2013-01-22 09:23:00,12.8,7.2,30.32,SSE,167,9.0,11.0,78,0.00,,,0.00,86,Wunderground v.1.15,2013-01-22 15:23:00,
2013-01-22 09:28:00,12.9,7.3,30.32,South,173,8.0,11.0,78,0.00,,,0.00,120,Wunderground v.1.15,2013-01-22 15:28:00,
2013-01-22 09:33:00,12.9,7.3,30.32,SSE,159,8.0,11.0,78,0.00,,,0.00,144,Wunderground v.1.15,2013-01-22 15:33:00,
2013-01-22 09:38:00,13.4,8.1,30.33,South,169,10.0,12.0,79,0.00,,,0.00,146,Wunderground v.1.15,2013-01-22 15:38:00,
2013-01-22 09:43:00,13.4,7.8,30.32,SSE,150,11.0,14.0,78,0.00,,,0.00,151,Wunderground v.1.15,2013-01-22 15:43:00,
2013-01-22 09:48:00,13.5,7.9,30.32,South,173,8.0,15.0,78,0.00,,,0.00,176,Wunderground v.1.15,2013-01-22 15:48:00,
2013-01-22 09:53:00,13.9,8.3,30.33,South,174,7.0,14.0,78,0.00,,,0.00,162,Wunderground v.1.15,2013-01-22 15:53:00,
2013-01-22 09:58:00,14.0,8.4,30.33,SSE,165,8.0,14.0,78,0.00,,,0.00,163,Wunderground v.1.15,2013-01-22 15:58:00,
2013-01-22 10:03:00,14.2,8.6,30.33,SSE,162,10.0,13.0,78,0.00,,,0.00,206,Wunderground v.1.15,2013-01-22 16:03:00,
2013-01-22 10:08:00,14.6,9.0,30.32,SSE,163,10.0,14.0,78,0.00,,,0.00,237,Wunderground v.1.15,2013-01-22 16:08:00,
2013-01-22 10:13:00,14.8,8.6,30.32,South,178,13.0,16.0,76,0.00,,,0.00,257,Wunderground v.1.15,2013-01-22 16:13:00,
2013-01-22 10:18:00,15.2,9.0,30.32,South,176,10.0,18.0,76,0.00,,,0.00,274,Wunderground v.1.15,2013-01-22 16:18:00,
2013-01-22 10:23:00,15.5,9.0,30.31,SSE,157,16.0,19.0,75,0.00,,,0.00,274,Wunderground v.1.15,2013-01-22 16:23:00,
2013-01-22 10:28:00,15.8,9.3,30.31,South,174,14.0,22.0,75,0.00,,,0.00,362,Wunderground v.1.15,2013-01-22 16:28:00,
2013-01-22 10:33:00,16.0,8.9,30.32,South,185,17.0,17.0,73,0.00,,,0.00,350,Wunderground v.1.15,2013-01-22 16:33:00,
2013-01-22 10:38:00,16.7,9.5,30.31,South,190,11.0,19.0,73,0.00,,,0.00,350,Wunderground v.1.15,2013-01-22 16:38:00,
2013-01-22 10:43:00,16.9,8.8,30.31,South,180,16.0,21.0,70,0.00,,,0.00,369,Wunderground v.1.15,2013-01-22 16:43:00,
2013-01-22 10:48:00,16.6,7.9,30.30,SSW,194,12.0,21.0,68,0.00,,,0.00,376,Wunderground v.1.15,2013-01-22 16:48:00,
2013-01-22 10:53:00,17.3,7.5,30.31,South,172,14.0,20.0,65,0.00,,,0.00,396,Wunderground v.1.15,2013-01-22 16:53:00,
2013-01-22 10:58:00,17.9,7.4,30.31,South,179,19.0,21.0,63,0.00,,,0.00,388,Wunderground v.1.15,2013-01-22 16:58:00,
2013-01-22 11:03:00,17.7,6.5,30.31,SSW,205,17.0,20.0,61,0.00,,,0.00,401,Wunderground v.1.15,2013-01-22 17:03:00,
2013-01-22 11:08:00,18.4,7.2,30.31,South,174,15.0,20.0,61,0.00,,,0.00,429,Wunderground v.1.15,2013-01-22 17:08:00,
2013-01-22 11:13:00,18.7,7.1,30.31,SSE,160,13.0,18.0,60,0.00,,,0.00,427,Wunderground v.1.15,2013-01-22 17:13:00,
2013-01-22 11:18:00,19.0,7.4,30.31,SSW,196,16.0,20.0,60,0.00,,,0.00,439,Wunderground v.1.15,2013-01-22 17:18:00,
2013-01-22 11:23:00,19.1,7.5,30.31,SSW,192,15.0,21.0,60,0.00,,,0.00,424,Wunderground v.1.15,2013-01-22 17:23:00,
2013-01-22 11:28:00,19.1,7.5,30.31,South,180,14.0,21.0,60,0.00,,,0.00,443,Wunderground v.1.15,2013-01-22 17:28:00,
2013-01-22 11:33:00,19.6,8.0,30.31,South,186,18.0,18.0,60,0.00,,,0.00,445,Wunderground v.1.15,2013-01-22 17:33:00,
2013-01-22 11:38:00,19.5,7.1,30.31,SSE,167,13.0,21.0,58,0.00,,,0.00,443,Wunderground v.1.15,2013-01-22 17:38:00,
2013-01-22 11:43:00,20.2,7.4,30.30,South,169,21.0,24.0,57,0.00,,,0.00,448,Wunderground v.1.15,2013-01-22 17:43:00,
2013-01-22 11:48:00,20.1,6.9,30.30,South,175,12.0,24.0,56,0.00,,,0.00,461,Wunderground v.1.15,2013-01-22 17:48:00,
2013-01-22 11:53:00,20.7,7.5,30.29,SSW,192,14.0,19.0,56,0.00,,,0.00,471,Wunderground v.1.15,2013-01-22 17:53:00,
2013-01-22 11:58:00,20.7,7.1,30.29,SSW,206,12.0,19.0,55,0.00,,,0.00,468,Wunderground v.1.15,2013-01-22 17:58:00,
2013-01-22 12:03:00,20.3,6.3,30.28,SSW,207,11.0,18.0,54,0.00,,,0.00,480,Wunderground v.1.15,2013-01-22 18:03:00,
2013-01-22 12:08:00,20.7,7.1,30.28,SSW,202,13.0,21.0,55,0.00,,,0.00,483,Wunderground v.1.15,2013-01-22 18:08:00,
2013-01-22 12:13:00,20.8,6.7,30.28,South,190,15.0,22.0,54,0.00,,,0.00,450,Wunderground v.1.15,2013-01-22 18:13:00,
2013-01-22 12:18:00,21.1,7.0,30.27,South,188,13.0,22.0,54,0.00,,,0.00,452,Wunderground v.1.15,2013-01-22 18:18:00,
2013-01-22 12:23:00,21.1,7.0,30.27,South,176,17.0,21.0,54,0.00,,,0.00,471,Wunderground v.1.15,2013-01-22 18:23:00,
2013-01-22 12:28:00,21.4,7.3,30.27,South,173,14.0,21.0,54,0.00,,,0.00,482,Wunderground v.1.15,2013-01-22 18:28:00,
2013-01-22 12:33:00,21.5,7.0,30.27,SSW,192,11.0,18.0,53,0.00,,,0.00,483,Wunderground v.1.15,2013-01-22 18:33:00,
2013-01-22 12:39:00,22.2,7.6,30.26,SSW,204,10.0,22.0,53,0.00,,,0.00,487,Wunderground v.1.15,2013-01-22 18:39:00,
2013-01-22 12:44:00,22.1,7.6,30.26,South,184,11.0,21.0,53,0.00,,,0.00,480,Wunderground v.1.15,2013-01-22 18:44:00,
2013-01-22 12:48:00,22.0,7.5,30.25,SSW,193,16.0,21.0,53,0.00,,,0.00,489,Wunderground v.1.15,2013-01-22 18:48:00,
2013-01-22 12:53:00,21.8,7.7,30.25,SSW,208,11.0,21.0,54,0.00,,,0.00,475,Wunderground v.1.15,2013-01-22 18:53:00,
2013-01-22 12:58:00,22.4,8.2,30.24,SSW,212,10.0,21.0,54,0.00,,,0.00,438,Wunderground v.1.15,2013-01-22 18:58:00,
2013-01-22 13:04:00,22.5,7.9,30.24,SSW,201,12.0,18.0,53,0.00,,,0.00,504,Wunderground v.1.15,2013-01-22 19:04:00,
2013-01-22 13:09:00,22.5,7.9,30.23,SSW,211,9.0,21.0,53,0.00,,,0.00,420,Wunderground v.1.15,2013-01-22 19:09:00,
2013-01-22 13:14:00,22.6,8.4,30.23,SSW,210,13.0,17.0,54,0.00,,,0.00,448,Wunderground v.1.15,2013-01-22 19:14:00,
2013-01-22 13:19:00,22.4,8.2,30.23,SSW,193,8.0,19.0,54,0.00,,,0.00,446,Wunderground v.1.15,2013-01-22 19:19:00,
2013-01-22 13:24:00,22.8,8.6,30.23,SW,224,9.0,20.0,54,0.00,,,0.00,452,Wunderground v.1.15,2013-01-22 19:24:00,
2013-01-22 13:29:00,23.0,8.8,30.22,South,187,16.0,20.0,54,0.00,,,0.00,455,Wunderground v.1.15,2013-01-22 19:29:00,
2013-01-22 13:34:00,23.3,9.1,30.22,SSW,202,9.0,19.0,54,0.00,,,0.00,446,Wunderground v.1.15,2013-01-22 19:34:00,
2013-01-22 13:39:00,23.5,8.9,30.22,SSW,211,12.0,20.0,53,0.00,,,0.00,473,Wunderground v.1.15,2013-01-22 19:39:00,
2013-01-22 13:44:00,23.9,9.6,30.21,SW,220,10.0,16.0,54,0.00,,,0.00,478,Wunderground v.1.15,2013-01-22 19:44:00,
2013-01-22 13:49:00,24.3,9.6,30.21,SSW,194,17.0,19.0,53,0.00,,,0.00,462,Wunderground v.1.15,2013-01-22 19:49:00,
2013-01-22 13:54:00,23.7,9.5,30.20,SW,220,13.0,19.0,54,0.00,,,0.00,397,Wunderground v.1.15,2013-01-22 19:54:00,
2013-01-22 13:59:00,24.0,10.2,30.21,South,182,15.0,19.0,55,0.00,,,0.00,432,Wunderground v.1.15,2013-01-22 19:59:00,
2013-01-22 14:04:00,24.0,10.2,30.21,SSW,192,9.0,17.0,55,0.00,,,0.00,455,Wunderground v.1.15,2013-01-22 20:04:00,
2013-01-22 14:09:00,24.4,10.1,30.20,SSW,201,12.0,17.0,54,0.00,,,0.00,403,Wunderground v.1.15,2013-01-22 20:09:00,
2013-01-22 14:14:00,23.8,10.0,30.20,SW,214,9.0,17.0,55,0.00,,,0.00,369,Wunderground v.1.15,2013-01-22 20:14:00,
2013-01-22 14:19:00,24.0,10.6,30.20,South,181,12.0,17.0,56,0.00,,,0.00,411,Wunderground v.1.15,2013-01-22 20:19:00,
2013-01-22 14:25:00,24.2,11.1,30.20,SSW,197,10.0,16.0,57,0.00,,,0.00,387,Wunderground v.1.15,2013-01-22 20:25:00,
2013-01-22 14:29:00,24.3,11.2,30.19,South,176,16.0,18.0,57,0.00,,,0.00,367,Wunderground v.1.15,2013-01-22 20:29:00,
2013-01-22 14:34:00,24.5,11.4,30.20,South,190,18.0,19.0,57,0.00,,,0.00,360,Wunderground v.1.15,2013-01-22 20:34:00,
2013-01-22 14:39:00,24.5,11.4,30.19,SSE,168,13.0,19.0,57,0.00,,,0.00,410,Wunderground v.1.15,2013-01-22 20:39:00,
2013-01-22 14:45:00,24.8,11.3,30.19,SSW,204,8.0,16.0,56,0.00,,,0.00,345,Wunderground v.1.15,2013-01-22 20:45:00,
2013-01-22 14:50:00,24.6,11.5,30.19,South,188,16.0,17.0,57,0.00,,,0.00,364,Wunderground v.1.15,2013-01-22 20:50:00,
2013-01-22 14:55:00,24.6,11.5,30.19,South,185,11.0,17.0,57,0.00,,,0.00,362,Wunderground v.1.15,2013-01-22 20:55:00,
2013-01-22 15:00:00,25.0,11.9,30.19,SSW,194,11.0,14.0,57,0.00,,,0.00,315,Wunderground v.1.15,2013-01-22 21:00:00,
2013-01-22 15:05:00,24.6,11.5,30.19,SSW,203,9.0,17.0,57,0.00,,,0.00,346,Wunderground v.1.15,2013-01-22 21:05:00,
2013-01-22 15:10:00,24.7,11.6,30.19,SSW,193,14.0,16.0,57,0.00,,,0.00,294,Wunderground v.1.15,2013-01-22 21:10:00,
2013-01-22 15:15:00,24.5,11.8,30.20,South,190,8.0,16.0,58,0.00,,,0.00,265,Wunderground v.1.15,2013-01-22 21:15:00,
2013-01-22 15:20:00,24.9,12.2,30.19,SSW,210,9.0,11.0,58,0.00,,,0.00,272,Wunderground v.1.15,2013-01-22 21:20:00,
2013-01-22 15:25:00,24.8,11.7,30.19,South,190,15.0,18.0,57,0.00,,,0.00,250,Wunderground v.1.15,2013-01-22 21:25:00,
2013-01-22 15:30:00,25.0,12.3,30.19,SSW,205,12.0,15.0,58,0.00,,,0.00,257,Wunderground v.1.15,2013-01-22 21:30:00,
2013-01-22 15:32:00,25.0,12.3,30.19,South,188,11.0,15.0,58,0.00,,,0.00,258,Wunderground v.1.15,2013-01-22 21:32:00,
2013-01-22 15:37:00,25.0,12.3,30.19,SW,217,12.0,15.0,58,0.00,,,0.00,274,Wunderground v.1.15,2013-01-22 21:37:00,
2013-01-22 15:42:00,25.0,12.3,30.19,South,187,10.0,16.0,58,0.00,,,0.00,253,Wunderground v.1.15,2013-01-22 21:42:00,
2013-01-22 15:47:00,25.3,12.6,30.20,South,184,8.0,17.0,58,0.00,,,0.00,274,Wunderground v.1.15,2013-01-22 21:47:00,
2013-01-22 15:52:00,25.4,12.3,30.19,SW,230,10.0,14.0,57,0.00,,,0.00,257,Wunderground v.1.15,2013-01-22 21:52:00,
2013-01-22 15:57:00,25.4,12.7,30.19,SSW,192,12.0,14.0,58,0.00,,,0.00,260,Wunderground v.1.15,2013-01-22 21:57:00,
2013-01-22 16:02:00,25.4,12.3,30.19,SSW,194,9.0,14.0,57,0.00,,,0.00,221,Wunderground v.1.15,2013-01-22 22:02:00,
2013-01-22 16:07:00,25.2,12.1,30.19,SSW,192,13.0,15.0,57,0.00,,,0.00,190,Wunderground v.1.15,2013-01-22 22:07:00,
2013-01-22 16:12:00,25.2,12.5,30.19,SSW,198,9.0,11.0,58,0.00,,,0.00,190,Wunderground v.1.15,2013-01-22 22:12:00,
2013-01-22 16:17:00,25.3,12.6,30.19,SSW,201,10.0,12.0,58,0.00,,,0.00,178,Wunderground v.1.15,2013-01-22 22:17:00,
2013-01-22 16:22:00,25.3,12.6,30.19,South,178,10.0,15.0,58,0.00,,,0.00,141,Wunderground v.1.15,2013-01-22 22:22:00,
2013-01-22 16:27:00,25.2,12.5,30.19,South,186,7.0,15.0,58,0.00,,,0.00,144,Wunderground v.1.15,2013-01-22 22:27:00,
2013-01-22 16:32:00,25.5,12.8,30.19,SSW,203,7.0,11.0,58,0.00,,,0.00,120,Wunderground v.1.15,2013-01-22 22:32:00,
2013-01-22 16:37:00,25.4,12.7,30.18,South,182,10.0,16.0,58,0.00,,,0.00,102,Wunderground v.1.15,2013-01-22 22:37:00,
2013-01-22 16:42:00,25.2,12.5,30.19,South,187,8.0,11.0,58,0.00,,,0.00,81,Wunderground v.1.15,2013-01-22 22:42:00,
2013-01-22 16:47:00,25.0,12.7,30.19,South,186,9.0,11.0,59,0.00,,,0.00,54,Wunderground v.1.15,2013-01-22 22:47:00,
2013-01-22 16:52:00,24.8,12.5,30.19,South,191,7.0,12.0,59,0.00,,,0.00,42,Wunderground v.1.15,2013-01-22 22:52:00,
2013-01-22 16:57:00,24.5,12.2,30.19,South,182,10.0,12.0,59,0.00,,,0.00,35,Wunderground v.1.15,2013-01-22 22:57:00,
2013-01-22 17:02:00,24.1,12.2,30.18,SSW,192,7.0,12.0,60,0.00,,,0.00,30,Wunderground v.1.15,2013-01-22 23:02:00,
2013-01-22 17:07:00,24.0,12.5,30.18,South,181,9.0,12.0,61,0.00,,,0.00,28,Wunderground v.1.15,2013-01-22 23:07:00,
2013-01-22 17:12:00,23.9,12.4,30.18,SSW,198,7.0,9.0,61,0.00,,,0.00,25,Wunderground v.1.15,2013-01-22 23:12:00,
2013-01-22 17:18:00,23.6,12.1,30.18,SSW,192,6.0,10.0,61,0.00,,,0.00,19,Wunderground v.1.15,2013-01-22 23:18:00,
2013-01-22 17:23:00,23.2,12.1,30.18,SSW,197,7.0,9.0,62,0.00,,,0.00,14,Wunderground v.1.15,2013-01-22 23:23:00,
2013-01-22 17:28:00,23.0,11.9,30.19,South,188,6.0,9.0,62,0.00,,,0.00,9,Wunderground v.1.15,2013-01-22 23:28:00,
2013-01-22 17:33:00,22.5,11.8,30.18,SSW,205,7.0,10.0,63,0.00,,,0.00,0,Wunderground v.1.15,2013-01-22 23:33:00,
2013-01-22 17:38:00,22.2,11.5,30.18,South,187,7.0,10.0,63,0.00,,,0.00,0,Wunderground v.1.15,2013-01-22 23:38:00,
2013-01-22 17:43:00,21.8,11.5,30.19,South,185,6.0,9.0,64,0.00,,,0.00,0,Wunderground v.1.15,2013-01-22 23:43:00,
2013-01-22 17:48:00,21.3,11.4,30.19,South,184,7.0,9.0,65,0.00,,,0.00,0,Wunderground v.1.15,2013-01-22 23:48:00,
2013-01-22 17:53:00,21.0,11.1,30.19,South,184,7.0,8.0,65,0.00,,,0.00,0,Wunderground v.1.15,2013-01-22 23:53:00,
2013-01-22 17:58:00,20.7,11.1,30.19,South,180,6.0,8.0,66,0.00,,,0.00,0,Wunderground v.1.15,2013-01-22 23:58:00,
2013-01-22 18:03:00,20.4,11.2,30.19,South,178,8.0,8.0,67,0.00,,,0.00,0,Wunderground v.1.15,2013-01-23 00:03:00,
2013-01-22 18:08:00,20.2,11.3,30.19,South,173,6.0,8.0,68,0.00,,,0.00,0,Wunderground v.1.15,2013-01-23 00:08:00,
2013-01-22 18:13:00,20.2,11.3,30.19,South,178,6.0,9.0,68,0.00,,,0.00,0,Wunderground v.1.15,2013-01-23 00:13:00,
2013-01-22 18:18:00,20.2,11.3,30.19,South,171,9.0,9.0,68,0.00,,,0.00,0,Wunderground v.1.15,2013-01-23 00:18:00,
2013-01-22 18:23:00,19.9,11.0,30.18,SSE,166,5.0,8.0,68,0.00,,,0.00,0,Wunderground v.1.15,2013-01-23 00:23:00,
2013-01-22 18:28:00,19.1,10.6,30.18,South,172,7.0,10.0,69,0.00,,,0.00,0,Wunderground v.1.15,2013-01-23 00:28:00,
2013-01-22 18:33:00,18.7,10.9,30.18,South,169,7.0,9.0,71,0.00,,,0.00,0,Wunderground v.1.15,2013-01-23 00:33:00,
2013-01-22 18:38:00,18.5,11.0,30.18,SSE,165,9.0,10.0,72,0.00,,,0.00,0,Wunderground v.1.15,2013-01-23 00:38:00,
2013-01-22 18:43:00,18.4,11.2,30.18,South,169,8.0,11.0,73,0.00,,,0.00,0,Wunderground v.1.15,2013-01-23 00:43:00,
2013-01-22 18:48:00,18.4,11.2,30.18,South,170,10.0,12.0,73,0.00,,,0.00,0,Wunderground v.1.15,2013-01-23 00:48:00,
2013-01-22 18:53:00,18.4,11.5,30.18,South,169,10.0,13.0,74,0.00,,,0.00,0,Wunderground v.1.15,2013-01-23 00:53:00,
2013-01-22 18:58:00,18.2,11.3,30.18,South,173,10.0,13.0,74,0.00,,,0.00,0,Wunderground v.1.15,2013-01-23 00:58:00,
2013-01-22 19:03:00,18.0,11.1,30.17,SSE,165,12.0,12.0,74,0.00,,,0.00,0,Wunderground v.1.15,2013-01-23 01:03:00,
2013-01-22 19:08:00,18.0,11.4,30.17,SSW,195,10.0,16.0,75,0.00,,,0.00,0,Wunderground v.1.15,2013-01-23 01:08:00,
2013-01-22 19:29:00,17.5,11.2,30.17,South,182,8.0,10.0,76,0.00,,,0.00,0,Wunderground v.1.15,2013-01-23 01:29:00,
2013-01-22 19:34:00,17.2,11.2,30.17,SSW,195,11.0,12.0,77,0.00,,,0.00,0,Wunderground v.1.15,2013-01-23 01:34:00,
2013-01-22 19:39:00,17.1,11.1,30.17,SSW,194,7.0,10.0,77,0.00,,,0.00,0,Wunderground v.1.15,2013-01-23 01:39:00,
2013-01-22 19:44:00,16.8,10.8,30.17,South,184,9.0,13.0,77,0.00,,,0.00,0,Wunderground v.1.15,2013-01-23 01:44:00,
2013-01-22 19:49:00,16.7,11.0,30.17,South,188,12.0,15.0,78,0.00,,,0.00,0,Wunderground v.1.15,2013-01-23 01:49:00,
2013-01-22 19:54:00,16.6,10.9,30.17,SSW,193,7.0,15.0,78,0.00,,,0.00,0,Wunderground v.1.15,2013-01-23 01:54:00,
2013-01-22 19:59:00,16.6,11.2,30.17,SSW,194,7.0,11.0,79,0.00,,,0.00,0,Wunderground v.1.15,2013-01-23 01:59:00,
2013-01-22 20:04:00,16.4,11.0,30.17,South,190,10.0,12.0,79,0.00,,,0.00,0,Wunderground v.1.15,2013-01-23 02:04:00,
2013-01-22 20:09:00,16.4,11.0,30.17,South,188,10.0,13.0,79,0.00,,,0.00,0,Wunderground v.1.15,2013-01-23 02:09:00,
2013-01-22 20:14:00,16.3,11.2,30.17,SSW,205,6.0,12.0,80,0.00,,,0.00,0,Wunderground v.1.15,2013-01-23 02:14:00,
2013-01-22 20:19:00,16.2,11.1,30.17,SSW,194,8.0,12.0,80,0.00,,,0.00,0,Wunderground v.1.15,2013-01-23 02:19:00,
2013-01-22 20:24:00,16.2,11.1,30.16,SSW,199,9.0,12.0,80,0.00,,,0.00,0,Wunderground v.1.15,2013-01-23 02:24:00,
2013-01-22 20:29:00,16.2,11.4,30.16,SSW,194,11.0,12.0,81,0.00,,,0.00,0,Wunderground v.1.15,2013-01-23 02:29:00,
2013-01-22 20:41:00,16.1,11.3,30.15,SW,218,10.0,10.0,81,0.00,,,0.00,0,Wunderground v.1.15,2013-01-23 02:41:00,
2013-01-22 20:46:00,16.1,11.3,30.15,SSW,202,7.0,13.0,81,0.00,,,0.00,0,Wunderground v.1.15,2013-01-23 02:46:00,
2013-01-22 20:51:00,16.2,11.4,30.15,SSW,198,8.0,9.0,81,0.00,,,0.00,0,Wunderground v.1.15,2013-01-23 02:51:00,
2013-01-22 20:56:00,16.5,11.7,30.15,SSW,204,9.0,14.0,81,0.00,,,0.00,0,Wunderground v.1.15,2013-01-23 02:56:00,
2013-01-22 21:01:00,16.6,11.8,30.16,SSW,199,13.0,13.0,81,0.00,,,0.00,0,Wunderground v.1.15,2013-01-23 03:01:00,
2013-01-22 21:06:00,16.5,11.7,30.16,SSW,198,7.0,13.0,81,0.00,,,0.00,0,Wunderground v.1.15,2013-01-23 03:06:00,
2013-01-22 21:12:00,16.2,11.4,30.15,SSW,205,8.0,9.0,81,0.00,,,0.00,0,Wunderground v.1.15,2013-01-23 03:12:00,
2013-01-22 21:17:00,16.0,11.5,30.15,SSW,205,7.0,10.0,82,0.00,,,0.00,0,Wunderground v.1.15,2013-01-23 03:17:00,
2013-01-22 21:22:00,16.0,11.5,30.15,SSW,212,8.0,9.0,82,0.00,,,0.00,0,Wunderground v.1.15,2013-01-23 03:22:00,
2013-01-22 21:27:00,16.1,11.6,30.15,SSW,196,8.0,9.0,82,0.00,,,0.00,0,Wunderground v.1.15,2013-01-23 03:27:00,
2013-01-22 21:32:00,16.1,11.8,30.15,SSW,207,9.0,9.0,83,0.00,,,0.00,0,Wunderground v.1.15,2013-01-23 03:32:00,
2013-01-22 21:37:00,16.4,12.1,30.16,SSW,203,8.0,10.0,83,0.00,,,0.00,0,Wunderground v.1.15,2013-01-23 03:37:00,
2013-01-22 21:42:00,16.8,12.5,30.15,SSW,206,6.0,10.0,83,0.00,,,0.00,0,Wunderground v.1.15,2013-01-23 03:42:00,
2013-01-22 21:47:00,17.2,12.9,30.15,South,188,11.0,11.0,83,0.00,,,0.00,0,Wunderground v.1.15,2013-01-23 03:47:00,
2013-01-22 21:52:00,17.7,13.4,30.15,SSW,197,8.0,14.0,83,0.00,,,0.00,0,Wunderground v.1.15,2013-01-23 03:52:00,
2013-01-22 21:57:00,18.1,13.5,30.15,SSW,201,11.0,14.0,82,0.00,,,0.00,0,Wunderground v.1.15,2013-01-23 03:57:00,
2013-01-22 22:02:00,18.1,13.5,30.16,SSW,208,9.0,12.0,82,0.00,,,0.00,0,Wunderground v.1.15,2013-01-23 04:02:00,
2013-01-22 22:07:00,18.1,13.5,30.16,SSW,206,9.0,12.0,82,0.00,,,0.00,0,Wunderground v.1.15,2013-01-23 04:07:00,
2013-01-22 22:12:00,17.9,13.3,30.15,SSW,208,10.0,12.0,82,0.00,,,0.00,0,Wunderground v.1.15,2013-01-23 04:12:00,
2013-01-22 22:17:00,17.7,13.1,30.16,SSW,200,7.0,12.0,82,0.00,,,0.00,0,Wunderground v.1.15,2013-01-23 04:17:00,
2013-01-22 22:22:00,17.5,12.9,30.16,SSW,204,7.0,8.0,82,0.00,,,0.00,0,Wunderground v.1.15,2013-01-23 04:22:00,
2013-01-22 22:27:00,17.4,12.8,30.16,SSW,212,7.0,8.0,82,0.00,,,0.00,0,Wunderground v.1.15,2013-01-23 04:27:00,
2013-01-22 22:32:00,17.2,12.6,30.16,SSW,205,8.0,8.0,82,0.00,,,0.00,0,Wunderground v.1.15,2013-01-23 04:32:00,
2013-01-22 22:37:00,17.0,12.5,30.16,SSW,203,6.0,8.0,82,0.00,,,0.00,0,Wunderground v.1.15,2013-01-23 04:37:00,
2013-01-22 22:42:00,16.8,12.5,30.16,SSW,208,6.0,7.0,83,0.00,,,0.00,0,Wunderground v.1.15,2013-01-23 04:42:00,
2013-01-22 22:47:00,16.9,12.6,30.16,SSW,209,4.0,8.0,83,0.00,,,0.00,0,Wunderground v.1.15,2013-01-23 04:47:00,
2013-01-22 22:52:00,17.1,13.1,30.16,SSW,213,5.0,5.0,84,0.00,,,0.00,0,Wunderground v.1.15,2013-01-23 04:52:00,
2013-01-22 22:57:00,17.1,13.1,30.16,SSW,205,5.0,6.0,84,0.00,,,0.00,0,Wunderground v.1.15,2013-01-23 04:57:00,
2013-01-22 23:00:00,17.2,13.2,30.16,SSW,213,3.0,5.0,84,0.00,,,0.00,0,Wunderground v.1.15,2013-01-23 05:00:00,
2013-01-22 23:03:00,17.3,13.3,30.16,SSW,203,3.0,6.0,84,0.00,,,0.00,0,Wunderground v.1.15,2013-01-23 05:03:00,
2013-01-22 23:08:00,17.4,13.4,30.16,SSW,203,4.0,6.0,84,0.00,,,0.00,0,Wunderground v.1.15,2013-01-23 05:08:00,
2013-01-22 23:13:00,17.4,13.4,30.16,SSW,209,3.0,5.0,84,0.00,,,0.00,0,Wunderground v.1.15,2013-01-23 05:13:00,
2013-01-22 23:18:00,17.5,13.5,30.16,SSW,210,2.0,5.0,84,0.00,,,0.00,0,Wunderground v.1.15,2013-01-23 05:18:00,
2013-01-22 23:23:00,17.6,13.6,30.16,SSW,209,3.0,4.0,84,0.00,,,0.00,0,Wunderground v.1.15,2013-01-23 05:23:00,
2013-01-22 23:28:00,17.5,13.5,30.16,SW,215,4.0,5.0,84,0.00,,,0.00,0,Wunderground v.1.15,2013-01-23 05:28:00,
2013-01-22 23:33:00,17.6,13.6,30.16,SW,215,3.0,4.0,84,0.00,,,0.00,0,Wunderground v.1.15,2013-01-23 05:33:00,
2013-01-22 23:38:00,17.5,13.5,30.16,SSW,205,5.0,5.0,84,0.00,,,0.00,0,Wunderground v.1.15,2013-01-23 05:38:00,
2013-01-22 23:43:00,17.4,13.4,30.16,SSW,208,4.0,4.0,84,0.00,,,0.00,0,Wunderground v.1.15,2013-01-23 05:43:00,
2013-01-22 23:48:00,17.7,13.7,30.17,SW,216,3.0,7.0,84,0.00,,,0.00,0,Wunderground v.1.15,2013-01-23 05:48:00,
2013-01-22 23:53:00,17.7,13.7,30.16,SW,225,5.0,6.0,84,0.00,,,0.00,0,Wunderground v.1.15,2013-01-23 05:53:00,
2013-01-22 23:58:00,17.7,13.7,30.17,SW,225,5.0,6.0,84,0.00,,,0.00,0,Wunderground v.1.15,2013-01-23 05:58:00,